sensor_id;sensor_type;location;lat;lon;timestamp;P1;durP1;ratioP1;P2;durP2;ratioP2
9958;SDS011;5019;48.012;7.812;2023-02-21T00:01:42;9.93;;;3.80;;
9958;SDS011;5019;48.012;7.812;2023-02-21T00:04:26;2.60;;;2.40;;
9958;SDS011;5019;48.012;7.812;2023-02-21T00:07:11;5.13;;;3.13;;
9958;SDS011;5019;48.012;7.812;2023-02-21T00:09:55;5.07;;;4.40;;
9958;SDS011;5019;48.012;7.812;2023-02-21T00:12:40;7.70;;;2.90;;
9958;SDS011;5019;48.012;7.812;2023-02-21T00:15:24;3.57;;;2.83;;
9958;SDS011;5019;48.012;7.812;2023-02-21T00:18:09;3.63;;;3.00;;
9958;SDS011;5019;48.012;7.812;2023-02-21T00:20:53;2.90;;;2.50;;
9958;SDS011;5019;48.012;7.812;2023-02-21T00:23:38;4.47;;;2.30;;
9958;SDS011;5019;48.012;7.812;2023-02-21T00:26:22;3.63;;;2.50;;
9958;SDS011;5019;48.012;7.812;2023-02-21T00:29:07;4.03;;;2.10;;
9958;SDS011;5019;48.012;7.812;2023-02-21T00:31:52;4.03;;;2.50;;
9958;SDS011;5019;48.012;7.812;2023-02-21T00:34:37;4.33;;;2.33;;
9958;SDS011;5019;48.012;7.812;2023-02-21T00:37:21;2.70;;;2.40;;
9958;SDS011;5019;48.012;7.812;2023-02-21T00:40:06;7.20;;;3.17;;
9958;SDS011;5019;48.012;7.812;2023-02-21T00:42:51;2.43;;;2.03;;
9958;SDS011;5019;48.012;7.812;2023-02-21T00:45:35;2.40;;;2.20;;
9958;SDS011;5019;48.012;7.812;2023-02-21T00:48:21;5.57;;;1.80;;
9958;SDS011;5019;48.012;7.812;2023-02-21T00:51:06;1.77;;;1.67;;
9958;SDS011;5019;48.012;7.812;2023-02-21T00:53:50;1.30;;;1.30;;
9958;SDS011;5019;48.012;7.812;2023-02-21T00:56:35;3.33;;;2.37;;
9958;SDS011;5019;48.012;7.812;2023-02-21T00:59:19;1.93;;;1.83;;
9958;SDS011;5019;48.012;7.812;2023-02-21T01:02:04;1.67;;;1.57;;
9958;SDS011;5019;48.012;7.812;2023-02-21T01:04:48;1.70;;;1.53;;
9958;SDS011;5019;48.012;7.812;2023-02-21T01:07:33;1.30;;;1.20;;
9958;SDS011;5019;48.012;7.812;2023-02-21T01:10:17;1.97;;;1.43;;
9958;SDS011;5019;48.012;7.812;2023-02-21T01:13:02;1.50;;;1.20;;
9958;SDS011;5019;48.012;7.812;2023-02-21T01:15:47;1.73;;;1.30;;
9958;SDS011;5019;48.012;7.812;2023-02-21T01:18:32;1.70;;;1.60;;
9958;SDS011;5019;48.012;7.812;2023-02-21T01:21:17;1.83;;;1.10;;
9958;SDS011;5019;48.012;7.812;2023-02-21T01:24:03;1.10;;;0.97;;
9958;SDS011;5019;48.012;7.812;2023-02-21T01:26:48;2.07;;;1.47;;
9958;SDS011;5019;48.012;7.812;2023-02-21T01:29:33;1.80;;;1.23;;
9958;SDS011;5019;48.012;7.812;2023-02-21T01:32:17;1.27;;;1.20;;
9958;SDS011;5019;48.012;7.812;2023-02-21T01:35:02;1.67;;;1.60;;
9958;SDS011;5019;48.012;7.812;2023-02-21T01:37:46;1.13;;;1.13;;
9958;SDS011;5019;48.012;7.812;2023-02-21T01:40:31;1.60;;;1.50;;
9958;SDS011;5019;48.012;7.812;2023-02-21T01:43:20;2.10;;;1.30;;
9958;SDS011;5019;48.012;7.812;2023-02-21T01:46:05;1.80;;;1.57;;
9958;SDS011;5019;48.012;7.812;2023-02-21T01:48:50;1.70;;;1.60;;
9958;SDS011;5019;48.012;7.812;2023-02-21T01:51:37;1.43;;;1.33;;
9958;SDS011;5019;48.012;7.812;2023-02-21T01:54:22;1.40;;;1.30;;
9958;SDS011;5019;48.012;7.812;2023-02-21T01:57:10;1.93;;;1.80;;
9958;SDS011;5019;48.012;7.812;2023-02-21T01:59:55;1.50;;;1.40;;
9958;SDS011;5019;48.012;7.812;2023-02-21T02:02:57;3.13;;;1.37;;
9958;SDS011;5019;48.012;7.812;2023-02-21T02:05:43;6.60;;;2.30;;
9958;SDS011;5019;48.012;7.812;2023-02-21T02:08:30;3.80;;;2.47;;
9958;SDS011;5019;48.012;7.812;2023-02-21T02:11:19;5.90;;;2.10;;
9958;SDS011;5019;48.012;7.812;2023-02-21T02:14:14;1.97;;;1.87;;
9958;SDS011;5019;48.012;7.812;2023-02-21T02:16:55;3.20;;;2.23;;
9958;SDS011;5019;48.012;7.812;2023-02-21T02:19:40;4.83;;;3.07;;
9958;SDS011;5019;48.012;7.812;2023-02-21T02:25:05;2.30;;;2.00;;
9958;SDS011;5019;48.012;7.812;2023-02-21T02:35:30;2.23;;;2.03;;
9958;SDS011;5019;48.012;7.812;2023-02-21T02:40:34;3.03;;;2.83;;
9958;SDS011;5019;48.012;7.812;2023-02-21T02:43:09;3.53;;;2.27;;
9958;SDS011;5019;48.012;7.812;2023-02-21T02:45:45;2.33;;;2.13;;
9958;SDS011;5019;48.012;7.812;2023-02-21T02:48:17;4.23;;;2.40;;
9958;SDS011;5019;48.012;7.812;2023-02-21T02:50:46;4.90;;;3.43;;
9958;SDS011;5019;48.012;7.812;2023-02-21T02:53:14;3.33;;;3.03;;
9958;SDS011;5019;48.012;7.812;2023-02-21T02:55:42;6.40;;;4.03;;
9958;SDS011;5019;48.012;7.812;2023-02-21T02:58:09;7.60;;;4.13;;
9958;SDS011;5019;48.012;7.812;2023-02-21T03:00:37;4.07;;;2.77;;
9958;SDS011;5019;48.012;7.812;2023-02-21T03:03:18;4.93;;;2.60;;
9958;SDS011;5019;48.012;7.812;2023-02-21T03:11:25;4.00;;;2.90;;
9958;SDS011;5019;48.012;7.812;2023-02-21T03:19:06;3.07;;;2.23;;
9958;SDS011;5019;48.012;7.812;2023-02-21T03:21:42;4.43;;;2.90;;
9958;SDS011;5019;48.012;7.812;2023-02-21T03:24:10;5.07;;;2.00;;
9958;SDS011;5019;48.012;7.812;2023-02-21T03:26:38;2.23;;;2.13;;
9958;SDS011;5019;48.012;7.812;2023-02-21T03:29:05;1.90;;;1.80;;
9958;SDS011;5019;48.012;7.812;2023-02-21T03:31:34;2.50;;;2.30;;
9958;SDS011;5019;48.012;7.812;2023-02-21T03:34:01;2.50;;;2.30;;
9958;SDS011;5019;48.012;7.812;2023-02-21T03:36:27;2.97;;;1.90;;
9958;SDS011;5019;48.012;7.812;2023-02-21T03:38:53;1.87;;;1.77;;
9958;SDS011;5019;48.012;7.812;2023-02-21T03:41:18;2.20;;;2.10;;
9958;SDS011;5019;48.012;7.812;2023-02-21T03:43:45;2.23;;;2.00;;
9958;SDS011;5019;48.012;7.812;2023-02-21T03:46:10;2.60;;;2.33;;
9958;SDS011;5019;48.012;7.812;2023-02-21T03:48:37;1.90;;;1.63;;
9958;SDS011;5019;48.012;7.812;2023-02-21T03:51:03;2.73;;;2.17;;
9958;SDS011;5019;48.012;7.812;2023-02-21T03:53:29;2.27;;;2.17;;
9958;SDS011;5019;48.012;7.812;2023-02-21T03:55:55;2.90;;;1.80;;
9958;SDS011;5019;48.012;7.812;2023-02-21T03:58:21;2.37;;;1.70;;
9958;SDS011;5019;48.012;7.812;2023-02-21T04:00:47;1.57;;;1.43;;
9958;SDS011;5019;48.012;7.812;2023-02-21T04:03:13;1.50;;;1.40;;
9958;SDS011;5019;48.012;7.812;2023-02-21T04:05:39;2.30;;;1.97;;
9958;SDS011;5019;48.012;7.812;2023-02-21T04:08:05;1.20;;;1.20;;
9958;SDS011;5019;48.012;7.812;2023-02-21T04:10:31;1.57;;;1.47;;
9958;SDS011;5019;48.012;7.812;2023-02-21T04:12:57;1.67;;;1.57;;
9958;SDS011;5019;48.012;7.812;2023-02-21T04:15:23;3.60;;;1.47;;
9958;SDS011;5019;48.012;7.812;2023-02-21T04:17:49;6.30;;;2.10;;
9958;SDS011;5019;48.012;7.812;2023-02-21T04:20:15;2.10;;;2.00;;
9958;SDS011;5019;48.012;7.812;2023-02-21T04:22:41;2.43;;;2.23;;
9958;SDS011;5019;48.012;7.812;2023-02-21T04:25:07;2.67;;;2.57;;
9958;SDS011;5019;48.012;7.812;2023-02-21T04:27:33;3.60;;;3.27;;
9958;SDS011;5019;48.012;7.812;2023-02-21T04:29:59;3.10;;;2.33;;
9958;SDS011;5019;48.012;7.812;2023-02-21T04:32:25;3.87;;;2.20;;
9958;SDS011;5019;48.012;7.812;2023-02-21T04:34:51;2.87;;;2.67;;
9958;SDS011;5019;48.012;7.812;2023-02-21T04:37:17;3.67;;;2.50;;
9958;SDS011;5019;48.012;7.812;2023-02-21T04:39:43;4.20;;;3.10;;
9958;SDS011;5019;48.012;7.812;2023-02-21T04:42:09;3.87;;;3.43;;
9958;SDS011;5019;48.012;7.812;2023-02-21T04:44:35;8.30;;;3.90;;
9958;SDS011;5019;48.012;7.812;2023-02-21T04:47:01;8.60;;;3.90;;
9958;SDS011;5019;48.012;7.812;2023-02-21T04:49:27;3.30;;;3.00;;
9958;SDS011;5019;48.012;7.812;2023-02-21T04:51:53;7.80;;;3.10;;
9958;SDS011;5019;48.012;7.812;2023-02-21T04:54:19;3.50;;;2.40;;
9958;SDS011;5019;48.012;7.812;2023-02-21T04:56:45;5.20;;;3.27;;
9958;SDS011;5019;48.012;7.812;2023-02-21T04:59:11;2.67;;;2.00;;
9958;SDS011;5019;48.012;7.812;2023-02-21T05:01:38;3.07;;;2.87;;
9958;SDS011;5019;48.012;7.812;2023-02-21T05:04:04;5.83;;;3.90;;
9958;SDS011;5019;48.012;7.812;2023-02-21T05:06:30;3.10;;;2.90;;
9958;SDS011;5019;48.012;7.812;2023-02-21T05:08:56;5.30;;;2.80;;
9958;SDS011;5019;48.012;7.812;2023-02-21T05:11:23;3.17;;;2.90;;
9958;SDS011;5019;48.012;7.812;2023-02-21T05:13:49;3.63;;;3.30;;
9958;SDS011;5019;48.012;7.812;2023-02-21T05:16:15;6.33;;;2.87;;
9958;SDS011;5019;48.012;7.812;2023-02-21T05:18:43;3.10;;;2.90;;
9958;SDS011;5019;48.012;7.812;2023-02-21T05:21:09;4.47;;;3.10;;
9958;SDS011;5019;48.012;7.812;2023-02-21T05:23:35;3.83;;;3.10;;
9958;SDS011;5019;48.012;7.812;2023-02-21T05:26:08;5.90;;;2.77;;
9958;SDS011;5019;48.012;7.812;2023-02-21T05:28:34;2.03;;;1.83;;
9958;SDS011;5019;48.012;7.812;2023-02-21T05:31:01;2.97;;;2.63;;
9958;SDS011;5019;48.012;7.812;2023-02-21T05:33:27;3.50;;;3.20;;
9958;SDS011;5019;48.012;7.812;2023-02-21T05:35:53;7.60;;;2.63;;
9958;SDS011;5019;48.012;7.812;2023-02-21T05:38:20;3.30;;;3.00;;
9958;SDS011;5019;48.012;7.812;2023-02-21T05:40:46;2.83;;;2.27;;
9958;SDS011;5019;48.012;7.812;2023-02-21T05:43:12;1.70;;;1.60;;
9958;SDS011;5019;48.012;7.812;2023-02-21T05:45:38;2.10;;;1.60;;
9958;SDS011;5019;48.012;7.812;2023-02-21T05:48:04;2.73;;;1.70;;
9958;SDS011;5019;48.012;7.812;2023-02-21T05:50:30;6.73;;;2.27;;
9958;SDS011;5019;48.012;7.812;2023-02-21T05:52:56;2.47;;;2.27;;
9958;SDS011;5019;48.012;7.812;2023-02-21T05:55:23;2.17;;;2.00;;
9958;SDS011;5019;48.012;7.812;2023-02-21T05:57:48;1.40;;;1.30;;
9958;SDS011;5019;48.012;7.812;2023-02-21T06:00:19;1.67;;;1.57;;
9958;SDS011;5019;48.012;7.812;2023-02-21T06:02:45;1.73;;;1.63;;
9958;SDS011;5019;48.012;7.812;2023-02-21T06:05:12;2.60;;;1.73;;
9958;SDS011;5019;48.012;7.812;2023-02-21T06:07:38;3.87;;;2.80;;
9958;SDS011;5019;48.012;7.812;2023-02-21T06:10:04;2.90;;;2.30;;
9958;SDS011;5019;48.012;7.812;2023-02-21T06:12:30;2.40;;;2.30;;
9958;SDS011;5019;48.012;7.812;2023-02-21T06:14:56;2.83;;;2.10;;
9958;SDS011;5019;48.012;7.812;2023-02-21T06:17:22;4.00;;;2.53;;
9958;SDS011;5019;48.012;7.812;2023-02-21T06:19:48;2.43;;;2.23;;
9958;SDS011;5019;48.012;7.812;2023-02-21T06:22:14;3.00;;;2.80;;
9958;SDS011;5019;48.012;7.812;2023-02-21T06:24:40;2.30;;;2.20;;
9958;SDS011;5019;48.012;7.812;2023-02-21T06:27:06;2.33;;;2.17;;
9958;SDS011;5019;48.012;7.812;2023-02-21T06:29:32;3.77;;;2.73;;
9958;SDS011;5019;48.012;7.812;2023-02-21T06:31:58;4.57;;;3.23;;
9958;SDS011;5019;48.012;7.812;2023-02-21T06:34:25;2.33;;;2.13;;
9958;SDS011;5019;48.012;7.812;2023-02-21T06:36:51;5.03;;;2.30;;
9958;SDS011;5019;48.012;7.812;2023-02-21T06:39:17;6.50;;;2.00;;
9958;SDS011;5019;48.012;7.812;2023-02-21T06:41:43;3.03;;;2.20;;
9958;SDS011;5019;48.012;7.812;2023-02-21T06:44:10;2.90;;;2.70;;
9958;SDS011;5019;48.012;7.812;2023-02-21T06:46:36;2.27;;;2.17;;
9958;SDS011;5019;48.012;7.812;2023-02-21T06:49:03;2.50;;;2.30;;
9958;SDS011;5019;48.012;7.812;2023-02-21T06:51:36;5.43;;;2.40;;
9958;SDS011;5019;48.012;7.812;2023-02-21T06:54:02;2.27;;;2.07;;
9958;SDS011;5019;48.012;7.812;2023-02-21T06:56:29;3.07;;;2.77;;
9958;SDS011;5019;48.012;7.812;2023-02-21T06:58:55;3.00;;;2.50;;
9958;SDS011;5019;48.012;7.812;2023-02-21T07:01:21;2.43;;;2.23;;
9958;SDS011;5019;48.012;7.812;2023-02-21T07:03:47;5.47;;;2.60;;
9958;SDS011;5019;48.012;7.812;2023-02-21T07:06:14;10.03;;;2.30;;
9958;SDS011;5019;48.012;7.812;2023-02-21T07:08:40;3.00;;;2.60;;
9958;SDS011;5019;48.012;7.812;2023-02-21T07:11:06;2.17;;;2.07;;
9958;SDS011;5019;48.012;7.812;2023-02-21T07:13:32;3.33;;;2.83;;
9958;SDS011;5019;48.012;7.812;2023-02-21T07:15:58;5.83;;;3.20;;
9958;SDS011;5019;48.012;7.812;2023-02-21T07:18:24;2.87;;;2.77;;
9958;SDS011;5019;48.012;7.812;2023-02-21T07:20:50;5.47;;;3.80;;
9958;SDS011;5019;48.012;7.812;2023-02-21T07:23:16;5.50;;;5.00;;
9958;SDS011;5019;48.012;7.812;2023-02-21T07:25:42;7.07;;;5.57;;
9958;SDS011;5019;48.012;7.812;2023-02-21T07:28:09;8.70;;;4.47;;
9958;SDS011;5019;48.012;7.812;2023-02-21T07:30:35;3.60;;;3.30;;
9958;SDS011;5019;48.012;7.812;2023-02-21T07:33:01;6.60;;;4.30;;
9958;SDS011;5019;48.012;7.812;2023-02-21T07:35:27;7.80;;;4.43;;
9958;SDS011;5019;48.012;7.812;2023-02-21T07:37:53;7.13;;;4.20;;
9958;SDS011;5019;48.012;7.812;2023-02-21T07:40:19;3.23;;;3.03;;
9958;SDS011;5019;48.012;7.812;2023-02-21T07:42:45;3.77;;;3.47;;
9958;SDS011;5019;48.012;7.812;2023-02-21T07:45:12;4.73;;;3.37;;
9958;SDS011;5019;48.012;7.812;2023-02-21T07:47:39;6.07;;;3.33;;
9958;SDS011;5019;48.012;7.812;2023-02-21T07:50:05;5.57;;;3.77;;
9958;SDS011;5019;48.012;7.812;2023-02-21T07:52:31;14.23;;;4.90;;
9958;SDS011;5019;48.012;7.812;2023-02-21T07:54:57;3.97;;;3.50;;
9958;SDS011;5019;48.012;7.812;2023-02-21T07:57:23;4.10;;;3.70;;
9958;SDS011;5019;48.012;7.812;2023-02-21T07:59:49;4.03;;;3.67;;
9958;SDS011;5019;48.012;7.812;2023-02-21T08:02:16;4.50;;;3.30;;
9958;SDS011;5019;48.012;7.812;2023-02-21T08:04:42;5.30;;;2.80;;
9958;SDS011;5019;48.012;7.812;2023-02-21T08:07:08;4.93;;;3.10;;
9958;SDS011;5019;48.012;7.812;2023-02-21T08:09:34;4.03;;;2.67;;
9958;SDS011;5019;48.012;7.812;2023-02-21T08:12:00;2.90;;;2.70;;
9958;SDS011;5019;48.012;7.812;2023-02-21T08:14:26;4.57;;;2.80;;
9958;SDS011;5019;48.012;7.812;2023-02-21T08:16:52;6.10;;;3.90;;
9958;SDS011;5019;48.012;7.812;2023-02-21T08:19:18;6.40;;;3.60;;
9958;SDS011;5019;48.012;7.812;2023-02-21T08:21:48;3.13;;;2.60;;
9958;SDS011;5019;48.012;7.812;2023-02-21T08:24:14;4.07;;;2.60;;
9958;SDS011;5019;48.012;7.812;2023-02-21T08:26:40;3.13;;;2.60;;
9958;SDS011;5019;48.012;7.812;2023-02-21T08:29:09;2.63;;;2.30;;
9958;SDS011;5019;48.012;7.812;2023-02-21T08:31:36;2.73;;;2.50;;
9958;SDS011;5019;48.012;7.812;2023-02-21T08:34:02;2.00;;;1.90;;
9958;SDS011;5019;48.012;7.812;2023-02-21T08:36:32;3.10;;;2.23;;
9958;SDS011;5019;48.012;7.812;2023-02-21T08:38:58;3.93;;;2.83;;
9958;SDS011;5019;48.012;7.812;2023-02-21T08:41:24;6.27;;;3.20;;
9958;SDS011;5019;48.012;7.812;2023-02-21T08:43:50;3.57;;;2.97;;
9958;SDS011;5019;48.012;7.812;2023-02-21T08:46:16;3.63;;;3.37;;
9958;SDS011;5019;48.012;7.812;2023-02-21T08:48:42;4.67;;;3.57;;
9958;SDS011;5019;48.012;7.812;2023-02-21T08:51:08;4.80;;;3.50;;
9958;SDS011;5019;48.012;7.812;2023-02-21T08:53:34;7.33;;;5.10;;
9958;SDS011;5019;48.012;7.812;2023-02-21T08:56:00;3.47;;;3.13;;
9958;SDS011;5019;48.012;7.812;2023-02-21T08:58:26;5.17;;;3.20;;
9958;SDS011;5019;48.012;7.812;2023-02-21T09:00:52;4.07;;;3.10;;
9958;SDS011;5019;48.012;7.812;2023-02-21T09:03:18;6.20;;;4.70;;
9958;SDS011;5019;48.012;7.812;2023-02-21T09:05:44;5.00;;;4.50;;
9958;SDS011;5019;48.012;7.812;2023-02-21T09:08:10;6.07;;;4.03;;
9958;SDS011;5019;48.012;7.812;2023-02-21T09:10:37;7.47;;;3.60;;
9958;SDS011;5019;48.012;7.812;2023-02-21T09:13:08;7.63;;;3.53;;
9958;SDS011;5019;48.012;7.812;2023-02-21T09:15:34;3.93;;;3.33;;
9958;SDS011;5019;48.012;7.812;2023-02-21T09:18:00;4.30;;;2.80;;
9958;SDS011;5019;48.012;7.812;2023-02-21T09:20:26;9.47;;;3.90;;
9958;SDS011;5019;48.012;7.812;2023-02-21T09:22:52;7.00;;;5.00;;
9958;SDS011;5019;48.012;7.812;2023-02-21T09:25:20;5.23;;;3.10;;
9958;SDS011;5019;48.012;7.812;2023-02-21T09:27:48;7.30;;;3.60;;
9958;SDS011;5019;48.012;7.812;2023-02-21T09:30:15;4.50;;;3.43;;
9958;SDS011;5019;48.012;7.812;2023-02-21T09:32:42;6.83;;;5.20;;
9958;SDS011;5019;48.012;7.812;2023-02-21T09:35:08;6.07;;;4.60;;
9958;SDS011;5019;48.012;7.812;2023-02-21T09:37:38;4.17;;;3.60;;
9958;SDS011;5019;48.012;7.812;2023-02-21T09:40:09;4.00;;;3.70;;
9958;SDS011;5019;48.012;7.812;2023-02-21T09:42:36;4.77;;;3.60;;
9958;SDS011;5019;48.012;7.812;2023-02-21T09:45:03;13.40;;;4.23;;
9958;SDS011;5019;48.012;7.812;2023-02-21T09:47:31;4.00;;;3.33;;
9958;SDS011;5019;48.012;7.812;2023-02-21T09:50:00;5.50;;;4.27;;
9958;SDS011;5019;48.012;7.812;2023-02-21T09:52:31;4.23;;;3.40;;
9958;SDS011;5019;48.012;7.812;2023-02-21T09:54:57;6.10;;;4.33;;
9958;SDS011;5019;48.012;7.812;2023-02-21T09:57:26;6.43;;;4.10;;
9958;SDS011;5019;48.012;7.812;2023-02-21T09:59:52;3.23;;;2.97;;
9958;SDS011;5019;48.012;7.812;2023-02-21T10:07:33;7.40;;;3.80;;
9958;SDS011;5019;48.012;7.812;2023-02-21T10:10:44;4.40;;;3.50;;
9958;SDS011;5019;48.012;7.812;2023-02-21T10:12:53;5.07;;;4.27;;
9958;SDS011;5019;48.012;7.812;2023-02-21T10:20:25;6.03;;;2.73;;
9958;SDS011;5019;48.012;7.812;2023-02-21T10:22:52;3.87;;;3.20;;
9958;SDS011;5019;48.012;7.812;2023-02-21T10:25:24;5.43;;;4.23;;
9958;SDS011;5019;48.012;7.812;2023-02-21T10:27:53;4.20;;;3.67;;
9958;SDS011;5019;48.012;7.812;2023-02-21T10:30:23;4.83;;;3.53;;
9958;SDS011;5019;48.012;7.812;2023-02-21T10:32:50;11.60;;;3.67;;
9958;SDS011;5019;48.012;7.812;2023-02-21T10:35:17;8.10;;;3.10;;
9958;SDS011;5019;48.012;7.812;2023-02-21T10:37:46;7.43;;;3.50;;
9958;SDS011;5019;48.012;7.812;2023-02-21T10:45:29;5.17;;;3.13;;
9958;SDS011;5019;48.012;7.812;2023-02-21T10:48:08;3.60;;;3.10;;
9958;SDS011;5019;48.012;7.812;2023-02-21T10:50:35;3.27;;;2.53;;
9958;SDS011;5019;48.012;7.812;2023-02-21T10:53:02;5.27;;;2.67;;
9958;SDS011;5019;48.012;7.812;2023-02-21T10:55:27;4.70;;;3.10;;
9958;SDS011;5019;48.012;7.812;2023-02-21T10:57:57;5.73;;;2.83;;
9958;SDS011;5019;48.012;7.812;2023-02-21T11:00:34;5.30;;;2.97;;
9958;SDS011;5019;48.012;7.812;2023-02-21T11:03:05;4.10;;;3.00;;
9958;SDS011;5019;48.012;7.812;2023-02-21T11:05:31;3.20;;;2.90;;
9958;SDS011;5019;48.012;7.812;2023-02-21T11:08:08;3.50;;;3.00;;
9958;SDS011;5019;48.012;7.812;2023-02-21T11:10:39;5.17;;;3.10;;
9958;SDS011;5019;48.012;7.812;2023-02-21T11:13:16;5.83;;;3.13;;
9958;SDS011;5019;48.012;7.812;2023-02-21T11:15:43;3.10;;;2.80;;
9958;SDS011;5019;48.012;7.812;2023-02-21T11:18:21;2.97;;;2.63;;
9958;SDS011;5019;48.012;7.812;2023-02-21T11:20:48;3.90;;;2.50;;
9958;SDS011;5019;48.012;7.812;2023-02-21T11:25:46;7.07;;;2.87;;
9958;SDS011;5019;48.012;7.812;2023-02-21T11:30:46;4.70;;;2.93;;
9958;SDS011;5019;48.012;7.812;2023-02-21T11:33:17;3.73;;;2.43;;
9958;SDS011;5019;48.012;7.812;2023-02-21T11:35:45;3.20;;;2.20;;
9958;SDS011;5019;48.012;7.812;2023-02-21T11:40:56;3.73;;;2.97;;
9958;SDS011;5019;48.012;7.812;2023-02-21T11:43:23;4.13;;;2.47;;
9958;SDS011;5019;48.012;7.812;2023-02-21T11:48:18;2.20;;;2.10;;
9958;SDS011;5019;48.012;7.812;2023-02-21T11:50:52;6.70;;;2.30;;
9958;SDS011;5019;48.012;7.812;2023-02-21T11:53:22;3.23;;;2.43;;
9958;SDS011;5019;48.012;7.812;2023-02-21T11:59:31;5.13;;;2.60;;
9958;SDS011;5019;48.012;7.812;2023-02-21T12:01:56;2.03;;;1.93;;
9958;SDS011;5019;48.012;7.812;2023-02-21T12:04:22;2.80;;;2.17;;
9958;SDS011;5019;48.012;7.812;2023-02-21T12:06:59;3.73;;;2.77;;
9958;SDS011;5019;48.012;7.812;2023-02-21T12:10:08;2.50;;;2.07;;
9958;SDS011;5019;48.012;7.812;2023-02-21T12:12:25;3.57;;;2.70;;
9958;SDS011;5019;48.012;7.812;2023-02-21T12:14:58;4.37;;;2.03;;
9958;SDS011;5019;48.012;7.812;2023-02-21T12:17:37;1.90;;;1.70;;
9958;SDS011;5019;48.012;7.812;2023-02-21T12:20:30;2.43;;;1.80;;
9958;SDS011;5019;48.012;7.812;2023-02-21T12:23:07;2.67;;;1.63;;
9958;SDS011;5019;48.012;7.812;2023-02-21T12:33:15;6.33;;;2.07;;
9958;SDS011;5019;48.012;7.812;2023-02-21T12:38:22;2.30;;;1.93;;
9958;SDS011;5019;48.012;7.812;2023-02-21T12:41:02;2.70;;;1.73;;
9958;SDS011;5019;48.012;7.812;2023-02-21T12:46:24;3.03;;;2.00;;
9958;SDS011;5019;48.012;7.812;2023-02-21T12:51:37;2.20;;;1.60;;
9958;SDS011;5019;48.012;7.812;2023-02-21T12:54:05;4.20;;;2.17;;
9958;SDS011;5019;48.012;7.812;2023-02-21T12:59:03;2.33;;;1.70;;
9958;SDS011;5019;48.012;7.812;2023-02-21T13:01:39;5.37;;;2.37;;
9958;SDS011;5019;48.012;7.812;2023-02-21T13:06:50;1.63;;;1.53;;
9958;SDS011;5019;48.012;7.812;2023-02-21T13:14:22;2.03;;;1.53;;
9958;SDS011;5019;48.012;7.812;2023-02-21T13:16:51;1.93;;;1.83;;
9958;SDS011;5019;48.012;7.812;2023-02-21T13:19:17;1.83;;;1.73;;
9958;SDS011;5019;48.012;7.812;2023-02-21T13:24:33;1.37;;;1.27;;
9958;SDS011;5019;48.012;7.812;2023-02-21T13:27:22;2.40;;;1.40;;
9958;SDS011;5019;48.012;7.812;2023-02-21T13:29:52;3.03;;;1.53;;
9958;SDS011;5019;48.012;7.812;2023-02-21T13:32:24;2.13;;;1.50;;
9958;SDS011;5019;48.012;7.812;2023-02-21T13:34:54;1.50;;;1.40;;
9958;SDS011;5019;48.012;7.812;2023-02-21T13:37:24;1.90;;;1.73;;
9958;SDS011;5019;48.012;7.812;2023-02-21T13:39:52;1.33;;;1.23;;
9958;SDS011;5019;48.012;7.812;2023-02-21T13:42:22;2.97;;;1.87;;
9958;SDS011;5019;48.012;7.812;2023-02-21T13:44:53;1.87;;;1.33;;
9958;SDS011;5019;48.012;7.812;2023-02-21T13:47:20;3.10;;;1.53;;
9958;SDS011;5019;48.012;7.812;2023-02-21T13:49:53;3.23;;;1.57;;
9958;SDS011;5019;48.012;7.812;2023-02-21T14:03:03;2.37;;;1.70;;
9958;SDS011;5019;48.012;7.812;2023-02-21T14:11:10;1.90;;;1.80;;
9958;SDS011;5019;48.012;7.812;2023-02-21T14:13:44;2.40;;;2.10;;
9958;SDS011;5019;48.012;7.812;2023-02-21T14:21:04;1.73;;;1.57;;
9958;SDS011;5019;48.012;7.812;2023-02-21T14:23:35;2.00;;;1.90;;
9958;SDS011;5019;48.012;7.812;2023-02-21T14:26:03;6.00;;;2.20;;
9958;SDS011;5019;48.012;7.812;2023-02-21T14:28:48;2.00;;;1.67;;
9958;SDS011;5019;48.012;7.812;2023-02-21T14:31:29;4.53;;;2.20;;
9958;SDS011;5019;48.012;7.812;2023-02-21T14:34:00;3.07;;;1.90;;
9958;SDS011;5019;48.012;7.812;2023-02-21T14:36:27;1.90;;;1.80;;
9958;SDS011;5019;48.012;7.812;2023-02-21T14:38:53;2.90;;;2.27;;
9958;SDS011;5019;48.012;7.812;2023-02-21T14:43:52;7.33;;;2.67;;
9958;SDS011;5019;48.012;7.812;2023-02-21T14:52:20;2.87;;;1.73;;
9958;SDS011;5019;48.012;7.812;2023-02-21T14:54:40;5.37;;;2.20;;
9958;SDS011;5019;48.012;7.812;2023-02-21T15:05:18;2.63;;;1.73;;
9958;SDS011;5019;48.012;7.812;2023-02-21T15:10:15;2.53;;;2.10;;
9958;SDS011;5019;48.012;7.812;2023-02-21T15:12:46;3.80;;;1.20;;
9958;SDS011;5019;48.012;7.812;2023-02-21T15:15:17;3.97;;;2.07;;
9958;SDS011;5019;48.012;7.812;2023-02-21T15:17:53;1.70;;;1.60;;
9958;SDS011;5019;48.012;7.812;2023-02-21T15:20:20;2.07;;;1.87;;
9958;SDS011;5019;48.012;7.812;2023-02-21T15:22:53;2.63;;;1.03;;
9958;SDS011;5019;48.012;7.812;2023-02-21T15:25:20;2.20;;;1.70;;
9958;SDS011;5019;48.012;7.812;2023-02-21T15:32:40;4.70;;;2.20;;
9958;SDS011;5019;48.012;7.812;2023-02-21T15:35:11;2.87;;;2.67;;
9958;SDS011;5019;48.012;7.812;2023-02-21T15:37:41;3.13;;;2.83;;
9958;SDS011;5019;48.012;7.812;2023-02-21T15:40:12;2.20;;;1.57;;
9958;SDS011;5019;48.012;7.812;2023-02-21T15:42:40;2.30;;;1.20;;
9958;SDS011;5019;48.012;7.812;2023-02-21T15:45:08;1.30;;;1.20;;
9958;SDS011;5019;48.012;7.812;2023-02-21T15:47:36;3.13;;;1.37;;
9958;SDS011;5019;48.012;7.812;2023-02-21T15:52:47;1.53;;;1.00;;
9958;SDS011;5019;48.012;7.812;2023-02-21T15:57:57;2.63;;;1.30;;
9958;SDS011;5019;48.012;7.812;2023-02-21T16:05:39;3.63;;;2.33;;
9958;SDS011;5019;48.012;7.812;2023-02-21T16:08:05;2.50;;;1.60;;
9958;SDS011;5019;48.012;7.812;2023-02-21T16:10:31;2.23;;;1.40;;
9958;SDS011;5019;48.012;7.812;2023-02-21T16:12:58;1.67;;;1.57;;
9958;SDS011;5019;48.012;7.812;2023-02-21T16:15:26;2.20;;;1.57;;
9958;SDS011;5019;48.012;7.812;2023-02-21T16:17:54;3.13;;;1.10;;
9958;SDS011;5019;48.012;7.812;2023-02-21T16:22:51;2.60;;;1.20;;
9958;SDS011;5019;48.012;7.812;2023-02-21T16:25:52;1.23;;;1.23;;
9958;SDS011;5019;48.012;7.812;2023-02-21T16:28:18;1.30;;;1.20;;
9958;SDS011;5019;48.012;7.812;2023-02-21T16:30:44;1.63;;;1.07;;
9958;SDS011;5019;48.012;7.812;2023-02-21T16:33:11;1.70;;;1.60;;
9958;SDS011;5019;48.012;7.812;2023-02-21T16:35:40;2.23;;;1.07;;
9958;SDS011;5019;48.012;7.812;2023-02-21T16:38:09;1.90;;;1.60;;
9958;SDS011;5019;48.012;7.812;2023-02-21T16:40:36;2.30;;;1.57;;
9958;SDS011;5019;48.012;7.812;2023-02-21T16:43:02;3.17;;;1.20;;
9958;SDS011;5019;48.012;7.812;2023-02-21T16:45:29;1.37;;;1.27;;
9958;SDS011;5019;48.012;7.812;2023-02-21T16:47:56;1.60;;;1.47;;
9958;SDS011;5019;48.012;7.812;2023-02-21T16:50:27;1.83;;;1.27;;
9958;SDS011;5019;48.012;7.812;2023-02-21T16:52:53;1.17;;;1.07;;
9958;SDS011;5019;48.012;7.812;2023-02-21T16:55:19;1.10;;;1.00;;
9958;SDS011;5019;48.012;7.812;2023-02-21T16:57:49;1.60;;;0.97;;
9958;SDS011;5019;48.012;7.812;2023-02-21T17:00:16;2.77;;;1.27;;
9958;SDS011;5019;48.012;7.812;2023-02-21T17:02:44;2.30;;;1.30;;
9958;SDS011;5019;48.012;7.812;2023-02-21T17:05:10;3.00;;;1.60;;
9958;SDS011;5019;48.012;7.812;2023-02-21T17:07:36;6.47;;;2.70;;
9958;SDS011;5019;48.012;7.812;2023-02-21T17:10:03;3.60;;;1.83;;
9958;SDS011;5019;48.012;7.812;2023-02-21T17:12:29;3.90;;;1.57;;
9958;SDS011;5019;48.012;7.812;2023-02-21T17:14:55;2.53;;;2.10;;
9958;SDS011;5019;48.012;7.812;2023-02-21T17:17:21;4.03;;;2.50;;
9958;SDS011;5019;48.012;7.812;2023-02-21T17:19:47;2.47;;;1.83;;
9958;SDS011;5019;48.012;7.812;2023-02-21T17:22:13;4.10;;;2.40;;
9958;SDS011;5019;48.012;7.812;2023-02-21T17:24:40;3.93;;;1.83;;
9958;SDS011;5019;48.012;7.812;2023-02-21T17:27:06;2.00;;;1.80;;
9958;SDS011;5019;48.012;7.812;2023-02-21T17:29:32;1.67;;;1.57;;
9958;SDS011;5019;48.012;7.812;2023-02-21T17:31:58;16.23;;;2.17;;
9958;SDS011;5019;48.012;7.812;2023-02-21T17:34:30;2.20;;;2.00;;
9958;SDS011;5019;48.012;7.812;2023-02-21T17:36:56;6.43;;;4.70;;
9958;SDS011;5019;48.012;7.812;2023-02-21T17:39:22;4.00;;;2.53;;
9958;SDS011;5019;48.012;7.812;2023-02-21T17:41:49;6.40;;;2.77;;
9958;SDS011;5019;48.012;7.812;2023-02-21T17:44:16;3.37;;;2.80;;
9958;SDS011;5019;48.012;7.812;2023-02-21T17:46:49;2.43;;;2.23;;
9958;SDS011;5019;48.012;7.812;2023-02-21T17:49:16;5.33;;;3.17;;
9958;SDS011;5019;48.012;7.812;2023-02-21T17:51:42;7.63;;;2.60;;
9958;SDS011;5019;48.012;7.812;2023-02-21T17:54:08;3.80;;;3.10;;
9958;SDS011;5019;48.012;7.812;2023-02-21T17:56:34;5.10;;;2.93;;